sensor_id;sensor_type;location;lat;lon;timestamp;pressure;altitude;pressure_sealevel;temperature;humidity
7834;BME280;3962;42.696;23.354;2023-06-22T00:02:17;95608.81;;;19.42;83.38
7834;BME280;3962;42.696;23.354;2023-06-22T00:04:44;95614.22;;;19.42;83.44
7834;BME280;3962;42.696;23.354;2023-06-22T00:07:10;95617.34;;;19.45;83.82
7834;BME280;3962;42.696;23.354;2023-06-22T00:09:37;95616.13;;;19.48;83.47
7834;BME280;3962;42.696;23.354;2023-06-22T00:12:05;95613.44;;;19.48;83.18
7834;BME280;3962;42.696;23.354;2023-06-22T00:14:33;95603.47;;;19.48;83.19
7834;BME280;3962;42.696;23.354;2023-06-22T00:17:00;95610.47;;;19.43;83.26
7834;BME280;3962;42.696;23.354;2023-06-22T00:19:27;95608.19;;;19.40;83.85
7834;BME280;3962;42.696;23.354;2023-06-22T00:21:54;95601.75;;;19.41;83.64
7834;BME280;3962;42.696;23.354;2023-06-22T00:24:25;95600.31;;;19.45;83.91
7834;BME280;3962;42.696;23.354;2023-06-22T00:26:52;95596.00;;;19.50;83.69
7834;BME280;3962;42.696;23.354;2023-06-22T00:29:19;95595.00;;;19.51;83.36
7834;BME280;3962;42.696;23.354;2023-06-22T00:31:47;95585.78;;;19.46;83.49
7834;BME280;3962;42.696;23.354;2023-06-22T00:34:14;95579.13;;;19.42;83.39
7834;BME280;3962;42.696;23.354;2023-06-22T00:36:41;95583.69;;;19.41;83.68
7834;BME280;3962;42.696;23.354;2023-06-22T00:39:08;95582.00;;;19.40;83.57
7834;BME280;3962;42.696;23.354;2023-06-22T00:41:35;95587.59;;;19.39;83.43
7834;BME280;3962;42.696;23.354;2023-06-22T00:44:02;95579.44;;;19.32;83.73
7834;BME280;3962;42.696;23.354;2023-06-22T00:46:29;95582.03;;;19.19;84.66
7834;BME280;3962;42.696;23.354;2023-06-22T00:48:57;95591.63;;;19.07;84.72
7834;BME280;3962;42.696;23.354;2023-06-22T00:51:24;95586.72;;;18.96;85.95
7834;BME280;3962;42.696;23.354;2023-06-22T00:53:52;95581.13;;;18.98;86.00
7834;BME280;3962;42.696;23.354;2023-06-22T00:56:19;95594.25;;;19.01;85.81
7834;BME280;3962;42.696;23.354;2023-06-22T00:58:50;95595.69;;;19.03;85.50
7834;BME280;3962;42.696;23.354;2023-06-22T01:01:19;95593.41;;;19.00;86.21
7834;BME280;3962;42.696;23.354;2023-06-22T01:03:49;95593.97;;;18.96;86.58
7834;BME280;3962;42.696;23.354;2023-06-22T01:06:24;95609.59;;;19.00;87.03
7834;BME280;3962;42.696;23.354;2023-06-22T01:09:00;95602.97;;;19.03;87.21
7834;BME280;3962;42.696;23.354;2023-06-22T01:11:36;95597.41;;;19.04;86.37
7834;BME280;3962;42.696;23.354;2023-06-22T01:14:08;95596.38;;;19.05;86.19
7834;BME280;3962;42.696;23.354;2023-06-22T01:16:41;95600.66;;;19.00;86.57
7834;BME280;3962;42.696;23.354;2023-06-22T01:19:20;95605.03;;;19.01;86.11
7834;BME280;3962;42.696;23.354;2023-06-22T01:21:55;95607.91;;;18.99;86.55
7834;BME280;3962;42.696;23.354;2023-06-22T01:24:26;95607.41;;;18.89;86.30
7834;BME280;3962;42.696;23.354;2023-06-22T01:27:06;95601.44;;;18.79;86.57
7834;BME280;3962;42.696;23.354;2023-06-22T01:29:38;95601.56;;;18.72;86.73
7834;BME280;3962;42.696;23.354;2023-06-22T01:32:06;95600.75;;;18.71;87.48
7834;BME280;3962;42.696;23.354;2023-06-22T01:34:34;95606.47;;;18.68;87.47
7834;BME280;3962;42.696;23.354;2023-06-22T01:37:03;95605.22;;;18.64;87.36
7834;BME280;3962;42.696;23.354;2023-06-22T01:39:31;95613.84;;;18.60;87.06
7834;BME280;3962;42.696;23.354;2023-06-22T01:41:59;95616.94;;;18.57;86.76
7834;BME280;3962;42.696;23.354;2023-06-22T01:44:26;95622.13;;;18.58;86.88
7834;BME280;3962;42.696;23.354;2023-06-22T01:46:55;95617.13;;;18.55;87.45
7834;BME280;3962;42.696;23.354;2023-06-22T01:49:22;95618.16;;;18.54;88.05
7834;BME280;3962;42.696;23.354;2023-06-22T01:51:49;95613.78;;;18.53;87.82
7834;BME280;3962;42.696;23.354;2023-06-22T01:54:16;95617.00;;;18.49;87.74
7834;BME280;3962;42.696;23.354;2023-06-22T01:56:43;95626.31;;;18.46;87.31
7834;BME280;3962;42.696;23.354;2023-06-22T01:59:15;95622.16;;;18.44;87.15
7834;BME280;3962;42.696;23.354;2023-06-22T02:01:48;95611.28;;;18.37;87.48
7834;BME280;3962;42.696;23.354;2023-06-22T02:04:21;95623.53;;;18.40;87.65
7834;BME280;3962;42.696;23.354;2023-06-22T02:06:51;95631.25;;;18.43;87.12
7834;BME280;3962;42.696;23.354;2023-06-22T02:09:22;95631.59;;;18.40;87.35
7834;BME280;3962;42.696;23.354;2023-06-22T02:11:50;95633.38;;;18.33;87.45
7834;BME280;3962;42.696;23.354;2023-06-22T02:14:21;95630.50;;;18.34;87.94
7834;BME280;3962;42.696;23.354;2023-06-22T02:16:48;95623.63;;;18.32;88.71
7834;BME280;3962;42.696;23.354;2023-06-22T02:19:16;95619.22;;;18.16;88.73
7834;BME280;3962;42.696;23.354;2023-06-22T02:21:45;95624.69;;;18.23;88.61
7834;BME280;3962;42.696;23.354;2023-06-22T02:24:12;95621.66;;;18.26;88.78
7834;BME280;3962;42.696;23.354;2023-06-22T02:26:39;95620.91;;;18.17;88.95
7834;BME280;3962;42.696;23.354;2023-06-22T02:29:07;95621.25;;;18.00;90.07
7834;BME280;3962;42.696;23.354;2023-06-22T02:31:34;95611.25;;;17.94;90.26
7834;BME280;3962;42.696;23.354;2023-06-22T02:34:01;95605.16;;;17.77;90.94
7834;BME280;3962;42.696;23.354;2023-06-22T02:36:28;95609.28;;;17.88;90.98
7834;BME280;3962;42.696;23.354;2023-06-22T02:38:57;95612.06;;;17.94;90.87
7834;BME280;3962;42.696;23.354;2023-06-22T02:41:24;95617.63;;;17.93;90.33
7834;BME280;3962;42.696;23.354;2023-06-22T02:43:51;95616.78;;;17.92;90.64
7834;BME280;3962;42.696;23.354;2023-06-22T02:46:18;95621.72;;;18.03;90.46
7834;BME280;3962;42.696;23.354;2023-06-22T02:48:45;95624.97;;;18.13;90.03
7834;BME280;3962;42.696;23.354;2023-06-22T02:51:12;95623.78;;;18.16;89.64
7834;BME280;3962;42.696;23.354;2023-06-22T02:53:40;95620.44;;;18.14;89.59
7834;BME280;3962;42.696;23.354;2023-06-22T02:56:11;95620.34;;;18.07;89.71
7834;BME280;3962;42.696;23.354;2023-06-22T02:58:38;95631.19;;;18.14;89.31
7834;BME280;3962;42.696;23.354;2023-06-22T03:01:05;95626.47;;;18.16;89.28
7834;BME280;3962;42.696;23.354;2023-06-22T03:03:32;95625.25;;;18.18;89.15
7834;BME280;3962;42.696;23.354;2023-06-22T03:05:59;95622.19;;;18.21;88.36
7834;BME280;3962;42.696;23.354;2023-06-22T03:08:27;95626.94;;;18.19;88.50
7834;BME280;3962;42.696;23.354;2023-06-22T03:10:54;95628.13;;;18.17;88.36
7834;BME280;3962;42.696;23.354;2023-06-22T03:13:23;95643.00;;;18.13;88.58
7834;BME280;3962;42.696;23.354;2023-06-22T03:15:49;95645.53;;;18.14;88.89
7834;BME280;3962;42.696;23.354;2023-06-22T03:18:16;95648.56;;;18.11;89.03
7834;BME280;3962;42.696;23.354;2023-06-22T03:20:43;95646.72;;;18.12;89.13
7834;BME280;3962;42.696;23.354;2023-06-22T03:23:10;95646.41;;;18.07;90.03
7834;BME280;3962;42.696;23.354;2023-06-22T03:25:37;95657.28;;;17.99;89.99
7834;BME280;3962;42.696;23.354;2023-06-22T03:28:04;95655.50;;;17.91;90.32
7834;BME280;3962;42.696;23.354;2023-06-22T03:30:32;95655.44;;;17.99;90.70
7834;BME280;3962;42.696;23.354;2023-06-22T03:32:59;95654.25;;;18.16;90.30
7834;BME280;3962;42.696;23.354;2023-06-22T03:35:25;95654.81;;;18.26;89.91
7834;BME280;3962;42.696;23.354;2023-06-22T03:37:52;95651.63;;;18.23;89.47
7834;BME280;3962;42.696;23.354;2023-06-22T03:40:19;95653.84;;;18.05;90.06
7834;BME280;3962;42.696;23.354;2023-06-22T03:42:46;95667.22;;;17.98;90.50
7834;BME280;3962;42.696;23.354;2023-06-22T03:45:13;95665.03;;;17.79;91.58
7834;BME280;3962;42.696;23.354;2023-06-22T03:47:41;95665.03;;;17.79;92.06
7834;BME280;3962;42.696;23.354;2023-06-22T03:50:09;95668.28;;;17.89;92.12
7834;BME280;3962;42.696;23.354;2023-06-22T03:52:36;95669.03;;;17.83;92.77
7834;BME280;3962;42.696;23.354;2023-06-22T03:55:03;95674.50;;;17.75;94.02
7834;BME280;3962;42.696;23.354;2023-06-22T03:57:31;95676.09;;;17.62;93.63
7834;BME280;3962;42.696;23.354;2023-06-22T03:59:59;95683.94;;;17.71;93.76
7834;BME280;3962;42.696;23.354;2023-06-22T04:02:25;95675.97;;;17.78;92.38
7834;BME280;3962;42.696;23.354;2023-06-22T04:04:54;95684.28;;;17.91;92.50
7834;BME280;3962;42.696;23.354;2023-06-22T04:07:20;95687.91;;;17.98;91.44
7834;BME280;3962;42.696;23.354;2023-06-22T04:09:47;95682.63;;;18.04;91.42
7834;BME280;3962;42.696;23.354;2023-06-22T04:12:15;95686.44;;;18.32;90.40
7834;BME280;3962;42.696;23.354;2023-06-22T04:14:42;95677.44;;;18.54;90.19
7834;BME280;3962;42.696;23.354;2023-06-22T04:17:09;95677.41;;;18.69;87.92
7834;BME280;3962;42.696;23.354;2023-06-22T04:19:35;95673.69;;;18.70;86.23
7834;BME280;3962;42.696;23.354;2023-06-22T04:22:04;95668.03;;;18.79;86.22
7834;BME280;3962;42.696;23.354;2023-06-22T04:24:32;95654.28;;;19.09;85.52
7834;BME280;3962;42.696;23.354;2023-06-22T04:26:59;95650.94;;;19.07;84.89
7834;BME280;3962;42.696;23.354;2023-06-22T04:29:28;95651.38;;;19.25;84.73
7834;BME280;3962;42.696;23.354;2023-06-22T04:31:56;95652.56;;;19.37;83.91
7834;BME280;3962;42.696;23.354;2023-06-22T04:34:24;95651.22;;;19.48;82.20
7834;BME280;3962;42.696;23.354;2023-06-22T04:36:51;95659.50;;;19.46;82.43
7834;BME280;3962;42.696;23.354;2023-06-22T04:39:20;95660.09;;;19.42;82.26
7834;BME280;3962;42.696;23.354;2023-06-22T04:41:47;95654.13;;;19.67;83.48
7834;BME280;3962;42.696;23.354;2023-06-22T04:44:15;95654.25;;;19.59;83.16
7834;BME280;3962;42.696;23.354;2023-06-22T04:46:49;95651.88;;;19.50;82.64
7834;BME280;3962;42.696;23.354;2023-06-22T04:49:20;95656.09;;;19.59;83.52
7834;BME280;3962;42.696;23.354;2023-06-22T04:51:47;95665.00;;;20.01;82.46
7834;BME280;3962;42.696;23.354;2023-06-22T04:54:17;95671.94;;;19.89;80.88
7834;BME280;3962;42.696;23.354;2023-06-22T04:56:45;95670.09;;;19.90;81.52
7834;BME280;3962;42.696;23.354;2023-06-22T04:59:12;95677.09;;;20.05;81.25
7834;BME280;3962;42.696;23.354;2023-06-22T05:01:39;95679.31;;;20.02;80.98
7834;BME280;3962;42.696;23.354;2023-06-22T05:04:06;95678.81;;;20.06;80.24
7834;BME280;3962;42.696;23.354;2023-06-22T05:06:33;95678.56;;;20.29;79.71
7834;BME280;3962;42.696;23.354;2023-06-22T05:09:00;95667.59;;;20.37;78.19
7834;BME280;3962;42.696;23.354;2023-06-22T05:11:28;95665.19;;;20.21;78.26
7834;BME280;3962;42.696;23.354;2023-06-22T05:13:56;95669.41;;;20.30;78.83
7834;BME280;3962;42.696;23.354;2023-06-22T05:16:24;95665.66;;;20.31;78.54
7834;BME280;3962;42.696;23.354;2023-06-22T05:18:52;95670.25;;;20.58;78.48
7834;BME280;3962;42.696;23.354;2023-06-22T05:21:21;95678.22;;;20.72;75.60
7834;BME280;3962;42.696;23.354;2023-06-22T05:23:48;95680.47;;;20.69;75.39
7834;BME280;3962;42.696;23.354;2023-06-22T05:26:18;95682.13;;;20.63;75.13
7834;BME280;3962;42.696;23.354;2023-06-22T05:28:46;95682.56;;;20.67;75.70
7834;BME280;3962;42.696;23.354;2023-06-22T05:31:15;95680.75;;;20.80;75.11
7834;BME280;3962;42.696;23.354;2023-06-22T05:33:43;95687.19;;;20.79;74.58
7834;BME280;3962;42.696;23.354;2023-06-22T05:36:10;95693.06;;;20.83;74.29
7834;BME280;3962;42.696;23.354;2023-06-22T05:38:38;95684.38;;;20.87;73.98
7834;BME280;3962;42.696;23.354;2023-06-22T05:41:05;95708.88;;;20.86;73.90
7834;BME280;3962;42.696;23.354;2023-06-22T05:43:32;95704.47;;;20.78;75.13
7834;BME280;3962;42.696;23.354;2023-06-22T05:46:01;95708.94;;;20.92;75.41
7834;BME280;3962;42.696;23.354;2023-06-22T05:48:29;95710.47;;;21.01;75.12
7834;BME280;3962;42.696;23.354;2023-06-22T05:50:56;95705.25;;;21.06;74.42
7834;BME280;3962;42.696;23.354;2023-06-22T05:53:23;95710.56;;;21.21;74.14
7834;BME280;3962;42.696;23.354;2023-06-22T05:55:50;95707.25;;;21.25;73.81
7834;BME280;3962;42.696;23.354;2023-06-22T05:58:17;95702.69;;;21.39;73.01
7834;BME280;3962;42.696;23.354;2023-06-22T06:00:44;95702.09;;;21.50;72.01
7834;BME280;3962;42.696;23.354;2023-06-22T06:03:12;95704.13;;;21.88;70.95
7834;BME280;3962;42.696;23.354;2023-06-22T06:05:44;95699.16;;;22.11;70.46
7834;BME280;3962;42.696;23.354;2023-06-22T06:08:11;95689.31;;;22.10;68.02
7834;BME280;3962;42.696;23.354;2023-06-22T06:10:38;95697.06;;;22.13;68.12
7834;BME280;3962;42.696;23.354;2023-06-22T06:13:05;95695.19;;;22.20;67.34
7834;BME280;3962;42.696;23.354;2023-06-22T06:15:33;95687.06;;;22.20;67.04
7834;BME280;3962;42.696;23.354;2023-06-22T06:18:00;95693.72;;;22.24;67.16
7834;BME280;3962;42.696;23.354;2023-06-22T06:20:29;95694.78;;;22.43;66.91
7834;BME280;3962;42.696;23.354;2023-06-22T06:22:57;95690.38;;;22.48;67.88
7834;BME280;3962;42.696;23.354;2023-06-22T06:25:24;95692.44;;;22.72;67.52
7834;BME280;3962;42.696;23.354;2023-06-22T06:27:51;95690.94;;;22.96;67.17
7834;BME280;3962;42.696;23.354;2023-06-22T06:30:20;95691.72;;;23.09;66.01
7834;BME280;3962;42.696;23.354;2023-06-22T06:32:47;95687.72;;;23.31;66.08
7834;BME280;3962;42.696;23.354;2023-06-22T06:35:14;95692.44;;;23.48;64.98
7834;BME280;3962;42.696;23.354;2023-06-22T06:37:47;95695.03;;;23.74;64.23
7834;BME280;3962;42.696;23.354;2023-06-22T06:40:16;95678.50;;;24.07;62.98
7834;BME280;3962;42.696;23.354;2023-06-22T06:42:44;95687.34;;;24.58;62.15
7834;BME280;3962;42.696;23.354;2023-06-22T06:45:11;95683.00;;;24.93;60.21
7834;BME280;3962;42.696;23.354;2023-06-22T06:47:39;95680.22;;;25.17;59.11
7834;BME280;3962;42.696;23.354;2023-06-22T06:50:07;95677.75;;;25.34;59.17
7834;BME280;3962;42.696;23.354;2023-06-22T06:52:36;95669.88;;;25.44;59.20
7834;BME280;3962;42.696;23.354;2023-06-22T06:55:03;95673.13;;;25.34;59.06
7834;BME280;3962;42.696;23.354;2023-06-22T06:57:35;95669.03;;;25.07;59.85
7834;BME280;3962;42.696;23.354;2023-06-22T07:00:03;95677.81;;;24.91;59.56
7834;BME280;3962;42.696;23.354;2023-06-22T07:02:37;95669.84;;;24.72;60.98
7834;BME280;3962;42.696;23.354;2023-06-22T07:05:05;95677.66;;;24.62;61.86
7834;BME280;3962;42.696;23.354;2023-06-22T07:07:33;95662.34;;;24.67;61.30
7834;BME280;3962;42.696;23.354;2023-06-22T07:10:00;95674.03;;;25.46;59.01
7834;BME280;3962;42.696;23.354;2023-06-22T07:12:27;95680.50;;;26.63;55.51
7834;BME280;3962;42.696;23.354;2023-06-22T07:15:01;95671.22;;;27.84;53.20
7834;BME280;3962;42.696;23.354;2023-06-22T07:17:28;95683.13;;;28.67;50.40
7834;BME280;3962;42.696;23.354;2023-06-22T07:19:55;95679.72;;;29.09;48.88
7834;BME280;3962;42.696;23.354;2023-06-22T07:22:22;95678.59;;;29.43;47.90
7834;BME280;3962;42.696;23.354;2023-06-22T07:24:49;95679.81;;;29.74;47.48
7834;BME280;3962;42.696;23.354;2023-06-22T07:27:15;95679.69;;;30.07;46.82
7834;BME280;3962;42.696;23.354;2023-06-22T07:29:44;95671.28;;;30.45;45.57
7834;BME280;3962;42.696;23.354;2023-06-22T07:32:12;95682.97;;;30.30;46.17
7834;BME280;3962;42.696;23.354;2023-06-22T07:34:39;95688.38;;;30.52;45.75
7834;BME280;3962;42.696;23.354;2023-06-22T07:37:06;95684.00;;;30.56;45.69
7834;BME280;3962;42.696;23.354;2023-06-22T07:39:33;95686.66;;;30.46;45.40
7834;BME280;3962;42.696;23.354;2023-06-22T07:42:00;95689.53;;;30.87;45.25
7834;BME280;3962;42.696;23.354;2023-06-22T07:44:27;95694.19;;;30.87;44.96
7834;BME280;3962;42.696;23.354;2023-06-22T07:46:54;95686.97;;;30.76;45.94
7834;BME280;3962;42.696;23.354;2023-06-22T07:49:22;95685.22;;;30.96;44.76
7834;BME280;3962;42.696;23.354;2023-06-22T07:51:48;95694.75;;;31.20;44.84
7834;BME280;3962;42.696;23.354;2023-06-22T07:54:15;95681.09;;;30.62;45.76
7834;BME280;3962;42.696;23.354;2023-06-22T07:56:42;95681.72;;;30.16;46.98
7834;BME280;3962;42.696;23.354;2023-06-22T07:59:09;95677.09;;;29.52;48.69
7834;BME280;3962;42.696;23.354;2023-06-22T08:01:36;95669.19;;;29.01;49.55
7834;BME280;3962;42.696;23.354;2023-06-22T08:04:03;95659.50;;;28.61;50.15
7834;BME280;3962;42.696;23.354;2023-06-22T08:06:32;95668.97;;;29.24;48.89
7834;BME280;3962;42.696;23.354;2023-06-22T08:08:59;95664.94;;;29.91;47.29
7834;BME280;3962;42.696;23.354;2023-06-22T08:11:26;95665.47;;;30.68;46.25
7834;BME280;3962;42.696;23.354;2023-06-22T08:13:53;95663.72;;;30.88;45.26
7834;BME280;3962;42.696;23.354;2023-06-22T08:16:21;95659.56;;;30.86;45.90
7834;BME280;3962;42.696;23.354;2023-06-22T08:18:48;95649.94;;;30.83;45.11
7834;BME280;3962;42.696;23.354;2023-06-22T08:21:15;95655.47;;;30.57;45.94
7834;BME280;3962;42.696;23.354;2023-06-22T08:23:43;95652.31;;;30.43;46.07
7834;BME280;3962;42.696;23.354;2023-06-22T08:26:10;95650.94;;;31.04;46.30
7834;BME280;3962;42.696;23.354;2023-06-22T08:28:37;95650.38;;;31.48;44.80
7834;BME280;3962;42.696;23.354;2023-06-22T08:31:04;95646.75;;;31.43;44.65
7834;BME280;3962;42.696;23.354;2023-06-22T08:33:32;95647.38;;;31.13;44.75
7834;BME280;3962;42.696;23.354;2023-06-22T08:35:59;95651.03;;;30.82;44.77
7834;BME280;3962;42.696;23.354;2023-06-22T08:38:26;95645.56;;;30.56;45.41
7834;BME280;3962;42.696;23.354;2023-06-22T08:40:55;95646.28;;;30.15;46.94
7834;BME280;3962;42.696;23.354;2023-06-22T08:43:22;95650.16;;;29.97;47.04
7834;BME280;3962;42.696;23.354;2023-06-22T08:45:49;95654.47;;;29.88;47.85
7834;BME280;3962;42.696;23.354;2023-06-22T08:48:17;95652.19;;;29.80;47.96
7834;BME280;3962;42.696;23.354;2023-06-22T08:50:43;95649.78;;;30.37;47.39
7834;BME280;3962;42.696;23.354;2023-06-22T08:53:10;95655.28;;;31.00;46.02
7834;BME280;3962;42.696;23.354;2023-06-22T08:55:37;95647.94;;;31.15;45.76
7834;BME280;3962;42.696;23.354;2023-06-22T08:58:06;95638.69;;;31.21;45.38
7834;BME280;3962;42.696;23.354;2023-06-22T09:00:32;95638.81;;;31.46;45.05
7834;BME280;3962;42.696;23.354;2023-06-22T09:03:00;95631.75;;;31.65;45.00
7834;BME280;3962;42.696;23.354;2023-06-22T09:05:27;95628.97;;;31.60;44.54
7834;BME280;3962;42.696;23.354;2023-06-22T09:07:56;95627.47;;;31.28;45.54
7834;BME280;3962;42.696;23.354;2023-06-22T09:10:24;95629.41;;;31.32;44.18
7834;BME280;3962;42.696;23.354;2023-06-22T09:12:51;95629.41;;;31.32;45.62
7834;BME280;3962;42.696;23.354;2023-06-22T09:15:19;95631.94;;;31.44;44.94
7834;BME280;3962;42.696;23.354;2023-06-22T09:17:46;95629.75;;;31.46;44.76
7834;BME280;3962;42.696;23.354;2023-06-22T09:20:13;95628.16;;;31.60;43.71
7834;BME280;3962;42.696;23.354;2023-06-22T09:22:40;95631.25;;;31.73;43.38
7834;BME280;3962;42.696;23.354;2023-06-22T09:25:08;95633.28;;;32.03;43.37
7834;BME280;3962;42.696;23.354;2023-06-22T09:27:35;95639.09;;;32.11;42.76
7834;BME280;3962;42.696;23.354;2023-06-22T09:30:02;95636.34;;;32.11;42.91
7834;BME280;3962;42.696;23.354;2023-06-22T09:32:30;95636.31;;;32.16;42.66
7834;BME280;3962;42.696;23.354;2023-06-22T09:34:57;95633.91;;;32.34;43.31
7834;BME280;3962;42.696;23.354;2023-06-22T09:37:24;95634.72;;;32.30;42.00
7834;BME280;3962;42.696;23.354;2023-06-22T09:39:51;95641.47;;;31.88;42.11
7834;BME280;3962;42.696;23.354;2023-06-22T09:42:18;95640.09;;;31.85;43.10
7834;BME280;3962;42.696;23.354;2023-06-22T09:44:44;95632.56;;;31.66;41.89
7834;BME280;3962;42.696;23.354;2023-06-22T09:47:11;95634.00;;;31.73;42.55
7834;BME280;3962;42.696;23.354;2023-06-22T09:49:40;95623.38;;;32.07;41.84
7834;BME280;3962;42.696;23.354;2023-06-22T09:52:07;95633.25;;;31.98;41.95
7834;BME280;3962;42.696;23.354;2023-06-22T09:54:34;95620.97;;;31.59;42.31
7834;BME280;3962;42.696;23.354;2023-06-22T09:57:01;95611.63;;;31.55;42.65
7834;BME280;3962;42.696;23.354;2023-06-22T09:59:28;95619.88;;;31.55;41.46
7834;BME280;3962;42.696;23.354;2023-06-22T10:01:54;95611.81;;;31.38;42.02
7834;BME280;3962;42.696;23.354;2023-06-22T10:04:21;95613.25;;;31.46;42.12
7834;BME280;3962;42.696;23.354;2023-06-22T10:06:51;95605.50;;;31.38;42.44
7834;BME280;3962;42.696;23.354;2023-06-22T10:09:18;95618.25;;;31.64;41.99
7834;BME280;3962;42.696;23.354;2023-06-22T10:11:45;95606.41;;;31.58;42.33
7834;BME280;3962;42.696;23.354;2023-06-22T10:14:12;95602.53;;;31.54;41.26
7834;BME280;3962;42.696;23.354;2023-06-22T10:16:39;95602.75;;;31.38;40.98
7834;BME280;3962;42.696;23.354;2023-06-22T10:19:06;95594.47;;;31.28;41.67
7834;BME280;3962;42.696;23.354;2023-06-22T10:21:33;95600.47;;;31.25;41.60
7834;BME280;3962;42.696;23.354;2023-06-22T10:24:02;95601.91;;;31.32;42.25
7834;BME280;3962;42.696;23.354;2023-06-22T10:26:32;95600.94;;;31.68;41.29
7834;BME280;3962;42.696;23.354;2023-06-22T10:29:00;95592.78;;;31.93;40.99
7834;BME280;3962;42.696;23.354;2023-06-22T10:31:27;95596.47;;;31.47;40.53
7834;BME280;3962;42.696;23.354;2023-06-22T10:33:54;95596.44;;;31.42;40.68
7834;BME280;3962;42.696;23.354;2023-06-22T10:36:21;95591.88;;;31.68;40.71
7834;BME280;3962;42.696;23.354;2023-06-22T10:38:48;95591.72;;;32.04;39.75
7834;BME280;3962;42.696;23.354;2023-06-22T10:41:16;95596.19;;;32.45;39.43
7834;BME280;3962;42.696;23.354;2023-06-22T10:43:43;95579.06;;;32.03;39.90
7834;BME280;3962;42.696;23.354;2023-06-22T10:46:10;95582.66;;;31.32;40.84
7834;BME280;3962;42.696;23.354;2023-06-22T10:48:36;95582.84;;;31.16;40.98
7834;BME280;3962;42.696;23.354;2023-06-22T10:51:03;95576.66;;;31.45;40.81
7834;BME280;3962;42.696;23.354;2023-06-22T10:53:30;95579.44;;;31.50;40.31
7834;BME280;3962;42.696;23.354;2023-06-22T10:55:57;95578.09;;;31.63;39.88
7834;BME280;3962;42.696;23.354;2023-06-22T10:58:25;95573.47;;;31.78;40.80
7834;BME280;3962;42.696;23.354;2023-06-22T11:00:52;95581.31;;;32.31;39.29
7834;BME280;3962;42.696;23.354;2023-06-22T11:03:20;95577.69;;;32.10;38.87
7834;BME280;3962;42.696;23.354;2023-06-22T11:05:47;95575.44;;;31.83;39.33
7834;BME280;3962;42.696;23.354;2023-06-22T11:08:15;95569.13;;;31.87;39.11
7834;BME280;3962;42.696;23.354;2023-06-22T11:10:43;95566.28;;;31.67;39.81
7834;BME280;3962;42.696;23.354;2023-06-22T11:13:10;95563.56;;;31.72;40.78
7834;BME280;3962;42.696;23.354;2023-06-22T11:15:38;95570.66;;;31.58;40.90
7834;BME280;3962;42.696;23.354;2023-06-22T11:18:05;95563.53;;;31.67;41.58
7834;BME280;3962;42.696;23.354;2023-06-22T11:20:33;95563.59;;;31.92;41.41
7834;BME280;3962;42.696;23.354;2023-06-22T11:23:04;95564.44;;;31.93;40.33
7834;BME280;3962;42.696;23.354;2023-06-22T11:25:30;95555.66;;;32.10;39.97
7834;BME280;3962;42.696;23.354;2023-06-22T11:27:57;95559.78;;;32.03;39.00
7834;BME280;3962;42.696;23.354;2023-06-22T11:30:24;95555.09;;;32.08;39.09
7834;BME280;3962;42.696;23.354;2023-06-22T11:32:53;95547.38;;;32.01;39.52
7834;BME280;3962;42.696;23.354;2023-06-22T11:35:20;95541.22;;;31.64;40.34
7834;BME280;3962;42.696;23.354;2023-06-22T11:37:46;95547.75;;;30.91;41.51
7834;BME280;3962;42.696;23.354;2023-06-22T11:40:14;95538.72;;;30.54;43.14
7834;BME280;3962;42.696;23.354;2023-06-22T11:42:43;95551.13;;;30.25;43.25
7834;BME280;3962;42.696;23.354;2023-06-22T11:45:10;95550.47;;;30.45;42.81
7834;BME280;3962;42.696;23.354;2023-06-22T11:47:36;95547.44;;;31.24;41.65
7834;BME280;3962;42.696;23.354;2023-06-22T11:50:07;95536.88;;;31.73;40.38
7834;BME280;3962;42.696;23.354;2023-06-22T11:52:34;95528.97;;;32.11;39.50
7834;BME280;3962;42.696;23.354;2023-06-22T11:55:02;95535.03;;;32.38;39.33
7834;BME280;3962;42.696;23.354;2023-06-22T11:57:33;95537.72;;;31.83;40.61
7834;BME280;3962;42.696;23.354;2023-06-22T12:00:01;95527.47;;;31.64;41.00
7834;BME280;3962;42.696;23.354;2023-06-22T12:02:31;95533.84;;;31.69;41.05
7834;BME280;3962;42.696;23.354;2023-06-22T12:04:58;95532.16;;;31.63;41.69
7834;BME280;3962;42.696;23.354;2023-06-22T12:07:26;95532.50;;;31.87;40.90
7834;BME280;3962;42.696;23.354;2023-06-22T12:09:53;95532.50;;;31.77;41.55
7834;BME280;3962;42.696;23.354;2023-06-22T12:12:20;95535.72;;;31.64;41.27
7834;BME280;3962;42.696;23.354;2023-06-22T12:14:47;95544.94;;;31.23;40.78
7834;BME280;3962;42.696;23.354;2023-06-22T12:17:13;95546.09;;;30.85;41.76
7834;BME280;3962;42.696;23.354;2023-06-22T12:19:40;95555.72;;;30.51;42.91
7834;BME280;3962;42.696;23.354;2023-06-22T12:22:07;95561.31;;;30.03;44.80
7834;BME280;3962;42.696;23.354;2023-06-22T12:24:38;95562.91;;;29.46;46.84
7834;BME280;3962;42.696;23.354;2023-06-22T12:27:05;95566.03;;;29.12;48.29
7834;BME280;3962;42.696;23.354;2023-06-22T12:29:31;95565.91;;;28.85;48.99
7834;BME280;3962;42.696;23.354;2023-06-22T12:31:59;95570.38;;;28.70;49.65
7834;BME280;3962;42.696;23.354;2023-06-22T12:34:26;95576.31;;;28.67;51.10
7834;BME280;3962;42.696;23.354;2023-06-22T12:36:53;95582.81;;;28.11;54.25
7834;BME280;3962;42.696;23.354;2023-06-22T12:39:20;95574.22;;;27.47;58.03
7834;BME280;3962;42.696;23.354;2023-06-22T12:41:48;95574.50;;;26.60;61.66
7834;BME280;3962;42.696;23.354;2023-06-22T12:44:15;95575.69;;;26.41;62.56
7834;BME280;3962;42.696;23.354;2023-06-22T12:46:42;95572.00;;;26.47;63.71
7834;BME280;3962;42.696;23.354;2023-06-22T12:49:09;95583.91;;;26.64;63.37
7834;BME280;3962;42.696;23.354;2023-06-22T12:51:39;95586.47;;;26.48;62.80
7834;BME280;3962;42.696;23.354;2023-06-22T12:54:06;95594.53;;;26.43;62.24
7834;BME280;3962;42.696;23.354;2023-06-22T12:56:34;95601.53;;;26.50;61.86
7834;BME280;3962;42.696;23.354;2023-06-22T12:59:05;95608.19;;;26.43;61.26
7834;BME280;3962;42.696;23.354;2023-06-22T13:01:32;95604.63;;;26.31;63.18
7834;BME280;3962;42.696;23.354;2023-06-22T13:03:59;95598.44;;;26.12;63.28
7834;BME280;3962;42.696;23.354;2023-06-22T13:06:26;95609.78;;;25.98;65.16
7834;BME280;3962;42.696;23.354;2023-06-22T13:08:53;95604.13;;;25.81;65.70
7834;BME280;3962;42.696;23.354;2023-06-22T13:11:21;95595.22;;;25.92;65.13
7834;BME280;3962;42.696;23.354;2023-06-22T13:13:48;95600.78;;;25.97;65.69